メインページ
METAR-TAF:

METAR-TAF

空港 :

La Ronge, サスカチュワン州, カナダ

緯度: 55-09N, 経度: 105-16W, 海抜: 375m

現時点の気象観測

当レポートは1時間10分前の09:00(UTC)に作成
西/南西の風 6kt
気温 -1°C
湿度 59%
気圧 1000 hPa
視程: 24.1km
晴天

METAR: CYVC 220900Z 25006KT 15SM SKC M01/M08 A2953 RMK SLP020

時間: 04:10 (10:10 UTC)

予報

当レポートは3時間32分前の06:38(UTC)に作成
予報は22日の 07時(UTC)から 22日の 19時(UTC)まで有効
西/南西の風 7kt
視程: 10km
高度24000ftの雲はほとんどない
22日の 1700時(UTC)から
西/南西の風 8kt
視程: 10km
高度16000ftの雲は散在している

TAF: CYVC 220638Z 2207/2219 24007KT P6SM FEW240 FM221700 24008KT P6SM SCT160 RMK NXT FCST BY 221300Z

4,000以上の空港の気象観測と天気予報(METAR報とTAF報)

利用可能な観測所は地図上に黄色い丸と赤い丸で示す。

丸の上にカーソルを重ねると観測所名を参照できる。

次にクリックすると気象観測と天気予報を参照できる。

マップの切り替え:黒色「×」印の緑ボタンをクリックして拡大、「-」印の緑ボタンをクリックして縮小、緑色の三角印をクリックして隣りの地図に切り替え


METAR-TAF: